createdAt,value
2018-08-11T00:00:40.785Z,17.90
2018-08-11T00:03:08.081Z,17.80
2018-08-11T00:05:35.393Z,17.80
2018-08-11T00:08:02.726Z,17.80
2018-08-11T00:10:30.081Z,17.70
2018-08-11T00:12:57.403Z,17.70
2018-08-11T00:15:24.731Z,17.70
2018-08-11T00:17:52.029Z,17.70
2018-08-11T00:20:23.568Z,17.70
2018-08-11T00:22:50.871Z,17.80
2018-08-11T00:25:18.197Z,17.80
2018-08-11T00:27:45.482Z,17.80
2018-08-11T00:30:14.453Z,17.80
2018-08-11T00:32:41.793Z,17.80
2018-08-11T00:35:09.604Z,17.80
2018-08-11T00:37:36.918Z,17.90
2018-08-11T00:40:06.701Z,18.10
2018-08-11T00:42:34.149Z,18.10
2018-08-11T00:45:01.437Z,18.10
2018-08-11T00:47:28.765Z,18.10
2018-08-11T00:49:56.056Z,18.10
2018-08-11T00:52:23.333Z,18.10
2018-08-11T00:54:50.639Z,18.00
2018-08-11T00:57:18.002Z,18.00
2018-08-11T00:59:45.307Z,17.90
2018-08-11T01:02:12.626Z,17.70
2018-08-11T01:04:39.913Z,17.60
2018-08-11T01:07:07.232Z,17.50
2018-08-11T01:09:34.537Z,17.60
2018-08-11T01:12:01.843Z,17.60
2018-08-11T01:14:29.144Z,17.60
2018-08-11T01:16:56.450Z,17.70
2018-08-11T01:19:23.789Z,17.70
2018-08-11T01:21:51.082Z,17.80
2018-08-11T01:24:18.465Z,17.80
2018-08-11T01:26:45.753Z,17.80
2018-08-11T01:29:13.118Z,17.80
2018-08-11T01:31:40.451Z,17.80
2018-08-11T01:34:07.760Z,17.80
2018-08-11T01:36:35.077Z,17.90
2018-08-11T01:39:02.467Z,17.80
2018-08-11T01:41:29.798Z,17.80
2018-08-11T01:43:57.105Z,17.90
2018-08-11T01:46:24.422Z,17.90
2018-08-11T01:48:51.706Z,18.00
2018-08-11T01:51:19.017Z,18.20
2018-08-11T01:53:46.767Z,18.20
2018-08-11T01:56:14.082Z,18.30
2018-08-11T01:58:41.406Z,18.30
2018-08-11T02:01:08.736Z,18.40
2018-08-11T02:03:36.018Z,18.30
2018-08-11T02:06:03.340Z,18.30
2018-08-11T02:08:30.702Z,18.30
2018-08-11T02:10:58.017Z,18.40
2018-08-11T02:13:25.353Z,18.50
2018-08-11T02:15:52.658Z,18.40
2018-08-11T02:18:19.966Z,18.30
2018-08-11T02:20:47.275Z,18.30
2018-08-11T02:23:14.630Z,18.30
2018-08-11T02:25:41.946Z,18.30
2018-08-11T02:28:09.591Z,18.20
2018-08-11T02:30:36.897Z,18.20
2018-08-11T02:33:04.195Z,18.20
2018-08-11T02:35:31.516Z,18.20
2018-08-11T02:37:58.826Z,18.20
2018-08-11T02:40:26.253Z,18.30
2018-08-11T02:42:53.568Z,18.30
2018-08-11T02:45:20.887Z,18.40
2018-08-11T02:47:48.205Z,18.30
2018-08-11T02:50:15.498Z,18.30
2018-08-11T02:52:42.830Z,18.30
2018-08-11T02:55:10.166Z,18.20
2018-08-11T02:57:37.475Z,18.10
2018-08-11T03:00:05.919Z,17.80
2018-08-11T03:02:33.353Z,17.60
2018-08-11T03:05:00.561Z,17.60
2018-08-11T03:07:27.864Z,17.80
2018-08-11T03:09:55.154Z,17.90
2018-08-11T03:12:22.460Z,17.90
2018-08-11T03:14:49.749Z,18.10
2018-08-11T03:17:17.154Z,18.20
2018-08-11T03:19:44.454Z,18.20
2018-08-11T03:22:11.773Z,18.20
2018-08-11T03:24:39.085Z,18.30
2018-08-11T03:27:06.419Z,18.30
2018-08-11T03:29:33.713Z,18.30
2018-08-11T03:32:01.014Z,18.20
2018-08-11T03:34:28.357Z,18.30
2018-08-11T03:36:55.670Z,18.30
2018-08-11T03:39:22.990Z,18.30
2018-08-11T03:41:50.298Z,18.30
2018-08-11T03:44:17.593Z,18.30
2018-08-11T03:46:44.889Z,18.20
2018-08-11T03:49:12.241Z,18.30
2018-08-11T03:51:39.610Z,18.30
2018-08-11T03:54:07.190Z,18.20
2018-08-11T03:56:34.496Z,18.00
2018-08-11T03:59:01.798Z,17.70
2018-08-11T04:01:29.109Z,17.40
2018-08-11T04:03:56.414Z,17.30
2018-08-11T04:06:23.730Z,17.20
2018-08-11T04:08:51.027Z,17.20
2018-08-11T04:11:18.317Z,17.20
2018-08-11T04:13:45.633Z,17.20
2018-08-11T04:16:12.954Z,17.10
2018-08-11T04:18:40.263Z,17.20
2018-08-11T04:21:07.567Z,17.10
2018-08-11T04:23:34.886Z,17.00
2018-08-11T04:26:02.184Z,17.00
2018-08-11T04:28:29.501Z,17.10
2018-08-11T04:30:56.793Z,17.20
2018-08-11T04:33:24.095Z,17.30
2018-08-11T04:35:51.400Z,17.50
2018-08-11T04:38:18.739Z,17.70
2018-08-11T04:40:46.009Z,17.80
2018-08-11T04:43:13.318Z,18.00
2018-08-11T04:45:40.618Z,18.10
2018-08-11T04:48:07.916Z,18.10
2018-08-11T04:50:35.198Z,18.20
2018-08-11T04:53:02.525Z,18.10
2018-08-11T04:55:29.856Z,18.10
2018-08-11T04:57:57.145Z,17.90
2018-08-11T05:00:24.474Z,17.80
2018-08-11T05:02:51.794Z,17.70
2018-08-11T05:05:19.088Z,17.70
2018-08-11T05:07:46.413Z,17.90
2018-08-11T05:10:13.718Z,18.00
2018-08-11T05:12:41.041Z,18.10
2018-08-11T05:15:08.357Z,18.20
2018-08-11T05:17:35.666Z,18.30
2018-08-11T05:20:03.002Z,18.30
2018-08-11T05:22:30.338Z,18.30
2018-08-11T05:24:57.625Z,18.30
2018-08-11T05:27:24.942Z,18.20
2018-08-11T05:29:52.671Z,17.90
2018-08-11T05:32:19.966Z,17.70
2018-08-11T05:34:47.258Z,17.60
2018-08-11T05:37:14.576Z,17.50
2018-08-11T05:39:41.859Z,17.50
2018-08-11T05:42:09.185Z,17.50
2018-08-11T05:44:36.498Z,17.50
2018-08-11T05:47:04.054Z,17.60
2018-08-11T05:49:31.375Z,17.50
2018-08-11T05:51:58.678Z,17.40
2018-08-11T05:54:26.022Z,17.30
2018-08-11T05:56:53.310Z,17.40
2018-08-11T05:59:20.612Z,17.40
2018-08-11T06:01:47.906Z,17.40
2018-08-11T06:04:15.257Z,17.40
2018-08-11T06:06:42.553Z,17.60
2018-08-11T06:09:09.912Z,17.80
2018-08-11T06:11:37.247Z,17.90
2018-08-11T06:14:06.358Z,17.80
2018-08-11T06:16:33.640Z,17.80
2018-08-11T06:19:00.941Z,17.90
2018-08-11T06:21:28.232Z,18.00
2018-08-11T06:23:55.555Z,18.10
2018-08-11T06:26:22.825Z,18.40
2018-08-11T06:28:50.150Z,18.60
2018-08-11T06:31:17.515Z,18.80
2018-08-11T06:33:44.827Z,19.10
2018-08-11T06:36:12.134Z,19.10
2018-08-11T06:38:39.598Z,19.10
2018-08-11T06:41:06.918Z,19.10
2018-08-11T06:43:34.215Z,19.00
2018-08-11T06:46:01.505Z,18.80
2018-08-11T06:48:28.910Z,18.70
2018-08-11T06:50:56.292Z,18.60
2018-08-11T06:53:23.568Z,18.70
2018-08-11T06:55:50.895Z,18.70
2018-08-11T06:58:18.191Z,18.80
2018-08-11T07:00:45.474Z,18.90
2018-08-11T07:03:12.816Z,19.00
2018-08-11T07:05:40.181Z,19.00
2018-08-11T07:08:07.574Z,19.10
2018-08-11T07:10:34.891Z,19.00
2018-08-11T07:13:02.202Z,18.60
2018-08-11T07:15:29.478Z,18.40
2018-08-11T07:17:56.799Z,18.40
2018-08-11T07:20:24.553Z,18.30
2018-08-11T07:22:51.850Z,18.60
2018-08-11T07:25:19.150Z,18.90
2018-08-11T07:27:46.435Z,19.10
2018-08-11T07:30:13.761Z,19.30
2018-08-11T07:32:41.049Z,19.30
2018-08-11T07:35:08.340Z,19.20
2018-08-11T07:37:35.673Z,19.30
2018-08-11T07:40:03.649Z,19.60
2018-08-11T07:42:30.954Z,19.80
2018-08-11T07:44:58.271Z,20.00
2018-08-11T07:47:25.646Z,20.10
2018-08-11T07:49:52.894Z,20.10
2018-08-11T07:52:20.207Z,20.10
2018-08-11T07:54:47.524Z,20.30
2018-08-11T07:57:14.859Z,20.60
2018-08-11T07:59:42.326Z,20.70
2018-08-11T08:02:09.598Z,20.90
2018-08-11T08:04:36.910Z,21.10
2018-08-11T08:07:04.254Z,21.10
2018-08-11T08:09:31.560Z,21.20
2018-08-11T08:11:58.847Z,21.00
2018-08-11T08:14:26.122Z,20.90
2018-08-11T08:16:53.433Z,21.00
2018-08-11T08:19:20.735Z,21.20
2018-08-11T08:21:48.148Z,21.30
2018-08-11T08:24:15.487Z,21.30
2018-08-11T08:26:42.774Z,21.30
2018-08-11T08:29:10.103Z,21.40
2018-08-11T08:31:37.402Z,21.30
2018-08-11T08:34:04.727Z,21.40
2018-08-11T08:36:32.022Z,21.40
2018-08-11T08:38:59.311Z,21.40
2018-08-11T08:41:26.609Z,20.70
2018-08-11T08:43:54.189Z,20.90
2018-08-11T08:46:22.190Z,21.30
2018-08-11T08:48:49.510Z,21.70
2018-08-11T08:51:16.828Z,21.90
2018-08-11T08:53:44.121Z,22.10
2018-08-11T08:56:11.422Z,21.60
2018-08-11T08:58:38.708Z,21.00
2018-08-11T09:01:06.051Z,21.20
2018-08-11T09:03:33.364Z,21.80
2018-08-11T09:06:00.663Z,22.20
2018-08-11T09:08:28.058Z,22.00
2018-08-11T09:10:55.388Z,22.10
2018-08-11T09:13:22.758Z,22.40
2018-08-11T09:15:50.101Z,22.70
2018-08-11T09:18:17.373Z,23.00
2018-08-11T09:20:44.765Z,23.20
2018-08-11T09:23:12.075Z,23.50
2018-08-11T09:25:39.386Z,23.80
2018-08-11T09:28:06.683Z,23.90
2018-08-11T09:30:34.021Z,24.10
2018-08-11T09:33:01.314Z,24.30
2018-08-11T09:35:28.614Z,24.20
2018-08-11T09:37:56.187Z,24.00
2018-08-11T09:40:23.497Z,23.80
2018-08-11T09:42:50.775Z,23.50
2018-08-11T09:45:18.088Z,22.40
2018-08-11T09:47:45.390Z,22.20
2018-08-11T09:50:12.679Z,22.20
2018-08-11T09:52:40.124Z,22.60
2018-08-11T09:55:07.422Z,22.70
2018-08-11T09:57:34.810Z,22.30
2018-08-11T10:00:02.263Z,21.80
2018-08-11T10:02:29.550Z,21.70
2018-08-11T10:04:56.941Z,22.10
2018-08-11T10:07:24.226Z,22.10
2018-08-11T10:09:51.554Z,21.90
2018-08-11T10:12:18.837Z,21.80
2018-08-11T10:14:46.205Z,21.50
2018-08-11T10:17:13.493Z,21.40
2018-08-11T10:19:40.853Z,21.40
2018-08-11T10:22:08.161Z,21.40
2018-08-11T10:24:35.496Z,21.20
2018-08-11T10:27:02.928Z,21.20
2018-08-11T10:29:30.273Z,21.40
2018-08-11T10:31:57.555Z,21.50
2018-08-11T10:34:25.033Z,21.70
2018-08-11T10:36:52.287Z,21.60
2018-08-11T10:39:19.681Z,21.40
2018-08-11T10:41:47.041Z,21.40
2018-08-11T10:44:14.349Z,21.30
2018-08-11T10:46:41.670Z,21.40
2018-08-11T10:49:08.982Z,21.60
2018-08-11T10:51:36.302Z,21.60
2018-08-11T10:54:03.666Z,21.70
2018-08-11T10:56:31.341Z,22.00
2018-08-11T10:58:58.647Z,22.20
2018-08-11T11:01:26.007Z,22.20
2018-08-11T11:03:53.367Z,22.30
2018-08-11T11:06:20.673Z,22.50
2018-08-11T11:08:47.965Z,22.60
2018-08-11T11:11:15.274Z,23.00
2018-08-11T11:13:42.573Z,23.60
2018-08-11T11:16:10.027Z,23.90
2018-08-11T11:18:37.307Z,23.90
2018-08-11T11:21:04.651Z,23.50
2018-08-11T11:23:32.058Z,23.10
2018-08-11T11:25:59.406Z,23.00
2018-08-11T11:28:26.733Z,22.90
2018-08-11T11:30:54.064Z,22.60
2018-08-11T11:33:21.359Z,22.80
2018-08-11T11:35:48.673Z,22.70
2018-08-11T11:38:15.984Z,22.70
2018-08-11T11:40:43.346Z,22.50
2018-08-11T11:43:10.716Z,22.10
2018-08-11T11:45:38.039Z,22.10
2018-08-11T11:48:05.634Z,22.00
2018-08-11T11:50:33.005Z,22.00
2018-08-11T11:53:00.286Z,22.20
2018-08-11T11:55:27.657Z,22.30
2018-08-11T11:57:54.971Z,22.80
2018-08-11T12:00:22.274Z,23.30
2018-08-11T12:02:49.596Z,23.90
2018-08-11T12:05:17.022Z,24.40
2018-08-11T12:07:44.377Z,24.70
2018-08-11T12:10:11.687Z,25.00
2018-08-11T12:12:39.001Z,24.90
2018-08-11T12:15:06.537Z,25.00
2018-08-11T12:17:33.966Z,25.10
2018-08-11T12:20:01.332Z,25.10
2018-08-11T12:22:28.642Z,24.80
2018-08-11T12:24:55.954Z,24.90
2018-08-11T12:27:23.242Z,25.10
2018-08-11T12:29:50.555Z,25.30
2018-08-11T12:32:17.833Z,25.30
2018-08-11T12:34:45.140Z,25.40
2018-08-11T12:37:12.447Z,25.50
2018-08-11T12:39:39.755Z,25.60
2018-08-11T12:42:07.407Z,25.30
2018-08-11T12:44:34.720Z,25.20
2018-08-11T12:47:02.045Z,24.60
2018-08-11T12:49:29.360Z,24.50
2018-08-11T12:51:56.705Z,24.30
2018-08-11T12:54:23.982Z,24.30
2018-08-11T12:56:51.296Z,24.30
2018-08-11T12:59:18.743Z,24.50
2018-08-11T13:01:46.043Z,24.30
2018-08-11T13:04:13.358Z,24.40
2018-08-11T13:06:40.661Z,24.50
2018-08-11T13:09:08.116Z,24.30
2018-08-11T13:11:35.421Z,24.20
2018-08-11T13:14:02.795Z,24.10
2018-08-11T13:16:30.105Z,24.20
2018-08-11T13:18:57.403Z,24.40
2018-08-11T13:21:24.723Z,24.80
2018-08-11T13:23:52.031Z,25.00
2018-08-11T13:26:19.334Z,25.10
2018-08-11T13:28:46.660Z,25.20
2018-08-11T13:31:13.933Z,25.50
2018-08-11T13:33:41.241Z,25.40
2018-08-11T13:36:08.553Z,24.90
2018-08-11T13:38:35.912Z,24.50
2018-08-11T13:41:03.245Z,24.10
2018-08-11T13:43:30.552Z,23.80
2018-08-11T13:45:57.881Z,23.70
2018-08-11T13:48:25.190Z,23.90
2018-08-11T13:50:52.474Z,24.00
2018-08-11T13:53:19.792Z,24.00
2018-08-11T13:55:47.096Z,24.20
2018-08-11T13:58:14.406Z,24.50
2018-08-11T14:00:41.773Z,24.50
2018-08-11T14:03:09.161Z,24.50
2018-08-11T14:05:36.587Z,24.80
2018-08-11T14:08:04.098Z,24.90
2018-08-11T14:10:31.381Z,24.80
2018-08-11T14:12:58.683Z,24.60
2018-08-11T14:15:25.997Z,24.30
2018-08-11T14:17:53.312Z,24.30
2018-08-11T14:20:20.639Z,24.60
2018-08-11T14:22:47.921Z,24.60
2018-08-11T14:25:15.210Z,24.70
2018-08-11T14:27:42.527Z,24.90
2018-08-11T14:30:09.810Z,25.10
2018-08-11T14:32:37.142Z,25.40
2018-08-11T14:35:04.618Z,25.60
2018-08-11T14:37:31.942Z,25.70
2018-08-11T14:39:59.255Z,25.80
2018-08-11T14:42:26.546Z,25.60
2018-08-11T14:44:55.218Z,25.50
2018-08-11T14:47:22.543Z,25.80
2018-08-11T14:49:49.844Z,26.00
2018-08-11T14:52:17.155Z,26.00
2018-08-11T14:54:44.452Z,26.10
2018-08-11T14:57:11.738Z,26.50
2018-08-11T14:59:39.058Z,26.70
2018-08-11T15:02:06.443Z,26.80
2018-08-11T15:04:33.775Z,26.20
2018-08-11T15:07:01.197Z,26.00
2018-08-11T15:09:28.606Z,26.10
2018-08-11T15:11:55.942Z,26.10
2018-08-11T15:14:23.258Z,26.40
2018-08-11T15:16:50.562Z,26.20
2018-08-11T15:19:17.866Z,26.40
2018-08-11T15:21:45.163Z,26.70
2018-08-11T15:24:12.464Z,26.90
2018-08-11T15:26:39.810Z,27.00
2018-08-11T15:29:07.478Z,26.90
2018-08-11T15:31:34.822Z,26.80
2018-08-11T15:34:02.179Z,27.00
2018-08-11T15:36:29.476Z,27.20
2018-08-11T15:38:56.818Z,27.00
2018-08-11T15:41:24.136Z,26.40
2018-08-11T15:43:51.483Z,26.50
2018-08-11T15:46:18.804Z,26.40
2018-08-11T15:48:46.185Z,25.70
2018-08-11T15:51:13.455Z,25.90
2018-08-11T15:53:40.730Z,26.30
2018-08-11T15:56:08.127Z,26.80
2018-08-11T15:58:35.475Z,27.10
2018-08-11T16:01:02.794Z,27.20
2018-08-11T16:03:30.391Z,26.90
2018-08-11T16:05:57.742Z,26.20
2018-08-11T16:08:25.070Z,25.70
2018-08-11T16:10:52.400Z,25.90
2018-08-11T16:13:19.781Z,26.00
2018-08-11T16:15:47.070Z,26.50
2018-08-11T16:18:14.362Z,27.00
2018-08-11T16:20:41.667Z,27.40
2018-08-11T16:23:08.974Z,27.90
2018-08-11T16:25:36.385Z,28.10
2018-08-11T16:28:03.950Z,28.10
2018-08-11T16:30:31.335Z,28.00
2018-08-11T16:32:58.646Z,27.80
2018-08-11T16:35:25.946Z,27.70
2018-08-11T16:37:53.359Z,27.60
2018-08-11T16:40:20.670Z,28.00
2018-08-11T16:42:47.959Z,28.10
2018-08-11T16:45:15.375Z,28.40
2018-08-11T16:47:42.693Z,28.10
2018-08-11T16:50:09.969Z,28.10
2018-08-11T16:52:37.274Z,28.00
2018-08-11T16:55:04.656Z,27.70
2018-08-11T16:57:32.011Z,27.50
2018-08-11T16:59:59.322Z,27.30
2018-08-11T17:02:26.645Z,27.80
2018-08-11T17:04:53.943Z,28.30
2018-08-11T17:07:21.270Z,27.90
2018-08-11T17:09:48.554Z,27.10
2018-08-11T17:12:15.869Z,26.60
2018-08-11T17:14:48.113Z,26.50
2018-08-11T17:17:15.347Z,26.30
2018-08-11T17:19:42.641Z,26.30
2018-08-11T17:22:10.958Z,26.30
2018-08-11T17:24:38.349Z,26.50
2018-08-11T17:27:05.698Z,26.70
2018-08-11T17:29:33.075Z,26.70
2018-08-11T17:32:00.376Z,26.50
2018-08-11T17:34:27.672Z,26.40
2018-08-11T17:36:54.964Z,26.10
2018-08-11T17:39:22.291Z,25.80
2018-08-11T17:41:49.613Z,25.70
2018-08-11T17:44:16.902Z,25.70
2018-08-11T17:46:44.207Z,25.70
2018-08-11T17:49:11.513Z,25.50
2018-08-11T17:51:38.890Z,25.30
2018-08-11T17:54:06.383Z,25.10
2018-08-11T17:56:33.728Z,25.10
2018-08-11T17:59:01.039Z,25.30
2018-08-11T18:01:28.333Z,25.30
2018-08-11T18:03:55.628Z,25.30
2018-08-11T18:06:22.947Z,25.20
2018-08-11T18:08:50.306Z,25.20
2018-08-11T18:11:17.617Z,25.20
2018-08-11T18:13:44.910Z,25.20
2018-08-11T18:16:12.257Z,25.10
2018-08-11T18:18:39.642Z,25.00
2018-08-11T18:21:06.955Z,25.00
2018-08-11T18:23:34.298Z,25.00
2018-08-11T18:26:01.603Z,24.90
2018-08-11T18:28:28.892Z,24.70
2018-08-11T18:30:56.228Z,24.60
2018-08-11T18:33:23.529Z,24.40
2018-08-11T18:35:51.859Z,24.20
2018-08-11T18:38:19.171Z,23.90
2018-08-11T18:40:46.462Z,23.80
2018-08-11T18:43:13.829Z,23.70
2018-08-11T18:45:41.107Z,23.60
2018-08-11T18:48:08.392Z,23.50
2018-08-11T18:50:35.734Z,23.40
2018-08-11T18:53:03.045Z,23.30
2018-08-11T18:55:30.542Z,23.20
2018-08-11T18:57:57.909Z,23.10
2018-08-11T19:00:25.190Z,23.00
2018-08-11T19:02:52.523Z,23.00
2018-08-11T19:05:19.840Z,23.00
2018-08-11T19:07:47.122Z,23.00
2018-08-11T19:10:14.467Z,23.00
2018-08-11T19:12:41.853Z,22.90
2018-08-11T19:15:11.522Z,22.90
2018-08-11T19:17:38.987Z,22.90
2018-08-11T19:20:07.097Z,22.90
2018-08-11T19:22:34.382Z,22.90
2018-08-11T19:25:01.693Z,22.90
2018-08-11T19:27:29.017Z,22.90
2018-08-11T19:29:56.339Z,22.90
2018-08-11T19:32:23.646Z,23.00
2018-08-11T19:34:50.938Z,23.20
2018-08-11T19:37:18.234Z,23.00
2018-08-11T19:39:45.535Z,22.90
2018-08-11T19:42:12.894Z,22.80
2018-08-11T19:44:40.321Z,22.70
2018-08-11T19:47:07.633Z,22.70
2018-08-11T19:49:34.970Z,22.70
2018-08-11T19:52:02.274Z,22.60
2018-08-11T19:54:29.653Z,22.60
2018-08-11T19:56:57.178Z,22.70
2018-08-11T19:59:24.505Z,22.70
2018-08-11T20:01:51.827Z,22.60
2018-08-11T20:04:19.141Z,22.50
2018-08-11T20:06:46.499Z,22.50
2018-08-11T20:09:14.186Z,22.40
2018-08-11T20:11:41.625Z,22.30
2018-08-11T20:14:08.960Z,22.30
2018-08-11T20:16:36.247Z,22.30
2018-08-11T20:19:04.041Z,22.30
2018-08-11T20:21:31.773Z,22.10
2018-08-11T20:23:59.108Z,22.00
2018-08-11T20:26:26.531Z,21.90
2018-08-11T20:28:54.056Z,21.80
2018-08-11T20:31:21.373Z,21.70
2018-08-11T20:33:48.726Z,21.60
2018-08-11T20:36:16.071Z,21.50
2018-08-11T20:38:43.415Z,21.60
2018-08-11T20:41:10.775Z,21.50
2018-08-11T20:43:38.189Z,21.30
2018-08-11T20:46:05.518Z,21.30
2018-08-11T20:48:32.993Z,21.10
2018-08-11T20:51:00.326Z,21.20
2018-08-11T20:53:28.077Z,21.00
2018-08-11T20:55:55.444Z,20.90
2018-08-11T20:58:22.764Z,21.00
2018-08-11T21:00:50.041Z,21.10
2018-08-11T21:03:17.633Z,21.00
2018-08-11T21:05:44.925Z,21.00
2018-08-11T21:08:12.318Z,20.90
2018-08-11T21:10:39.627Z,20.70
2018-08-11T21:13:06.922Z,20.70
2018-08-11T21:15:34.295Z,20.70
2018-08-11T21:18:01.617Z,20.70
2018-08-11T21:20:28.934Z,20.60
2018-08-11T21:22:56.252Z,20.60
2018-08-11T21:25:23.559Z,20.60
2018-08-11T21:27:50.918Z,20.40
2018-08-11T21:30:18.335Z,20.10
2018-08-11T21:32:45.653Z,19.90
2018-08-11T21:35:13.014Z,19.80
2018-08-11T21:37:40.342Z,19.90
2018-08-11T21:40:09.303Z,20.00
2018-08-11T21:42:36.596Z,19.90
2018-08-11T21:45:04.197Z,19.90
2018-08-11T21:47:31.497Z,19.80
2018-08-11T21:49:59.654Z,19.70
2018-08-11T21:52:27.021Z,19.70
2018-08-11T21:54:54.738Z,19.60
2018-08-11T21:57:22.042Z,19.50
2018-08-11T21:59:49.361Z,19.50
2018-08-11T22:02:16.686Z,19.50
2018-08-11T22:04:44.019Z,19.60
2018-08-11T22:07:11.332Z,19.70
2018-08-11T22:09:38.644Z,19.70
2018-08-11T22:12:05.963Z,19.60
2018-08-11T22:14:33.317Z,19.50
2018-08-11T22:17:00.586Z,19.40
2018-08-11T22:19:27.905Z,19.40
2018-08-11T22:21:55.191Z,19.30
2018-08-11T22:24:22.477Z,19.30
2018-08-11T22:26:49.803Z,19.30
2018-08-11T22:29:17.129Z,19.20
2018-08-11T22:31:44.459Z,19.10
2018-08-11T22:34:11.757Z,18.90
2018-08-11T22:36:39.124Z,19.00
2018-08-11T22:39:06.923Z,19.20
2018-08-11T22:41:34.304Z,19.10
2018-08-11T22:44:01.639Z,19.00
2018-08-11T22:46:29.112Z,18.90
2018-08-11T22:48:56.388Z,18.90
2018-08-11T22:51:23.682Z,18.90
2018-08-11T22:53:50.993Z,18.90
2018-08-11T22:56:18.281Z,18.90
2018-08-11T22:58:45.602Z,18.90
2018-08-11T23:01:12.943Z,18.90
2018-08-11T23:03:40.229Z,19.00
2018-08-11T23:06:07.529Z,18.90
2018-08-11T23:08:34.859Z,18.90
2018-08-11T23:11:02.150Z,18.70
2018-08-11T23:13:29.444Z,18.50
2018-08-11T23:15:56.773Z,18.50
2018-08-11T23:18:24.067Z,18.50
2018-08-11T23:20:51.383Z,18.40
2018-08-11T23:23:18.697Z,18.50
2018-08-11T23:25:45.996Z,18.50
2018-08-11T23:28:13.307Z,18.30
2018-08-11T23:30:40.640Z,18.20
2018-08-11T23:33:07.937Z,18.20
2018-08-11T23:35:35.279Z,18.30
2018-08-11T23:38:02.629Z,18.20
2018-08-11T23:40:29.906Z,18.30
2018-08-11T23:42:57.222Z,18.30
2018-08-11T23:45:24.517Z,18.10
2018-08-11T23:47:51.858Z,18.10
2018-08-11T23:50:19.215Z,18.10
2018-08-11T23:52:46.540Z,18.00
2018-08-11T23:55:13.850Z,18.10
2018-08-11T23:57:41.273Z,18.00
